Time;durP1;ratioP1;P1;durP2;ratioP2;P2;SDS_P1;SDS_P2;PMS_P1;PMS_P2;Temp;Humidity;BMP_temperature;BMP_pressure;BME280_temperature;BME280_humidity;BME280_pressure;Samples;Min_cycle;Max_cycle;Signal;HPM_P1;HPM_P2
2023/04/12 00:01:26;;;;;;;2.60;0.80;;;;;;;;;;5011217;28;20031;-60
2023/04/12 00:03:53;;;;;;;2.75;1.13;;;;;;;;;;5010887;28;20870;-61
2023/04/12 00:06:24;;;;;;;3.00;0.98;;;;;;;;;;5011137;28;20034;-60
2023/04/12 00:08:50;;;;;;;1.70;0.80;;;;;;;;;;5010659;28;20176;-61
2023/04/12 00:11:16;;;;;;;2.42;0.90;;;;;;;;;;5010807;28;20425;-61
2023/04/12 00:13:42;;;;;;;3.30;0.95;;;;;;;;;;5010521;28;20026;-60
2023/04/12 00:16:09;;;;;;;1.65;0.70;;;;;;;;;;5010323;28;20024;-60
2023/04/12 00:18:35;;;;;;;2.13;0.80;;;;;;;;;;5011110;28;20038;-61
2023/04/12 00:21:02;;;;;;;3.72;1.10;;;;;;;;;;5010699;28;20108;-62
2023/04/12 00:23:28;;;;;;;1.63;0.77;;;;;;;;;;5011503;28;20050;-61
2023/04/12 00:25:54;;;;;;;3.97;1.10;;;;;;;;;;5010253;28;20112;-61
2023/04/12 00:28:20;;;;;;;2.83;1.05;;;;;;;;;;5010291;28;20030;-62
2023/04/12 00:30:45;;;;;;;2.60;0.98;;;;;;;;;;5010866;28;20561;-61
2023/04/12 00:33:11;;;;;;;3.42;0.90;;;;;;;;;;5010900;28;20029;-61
2023/04/12 00:35:37;;;;;;;2.88;1.10;;;;;;;;;;4993019;28;20072;-61
2023/04/12 00:38:09;;;;;;;2.00;0.93;;;;;;;;;;5010870;28;20425;-61
2023/04/12 00:40:35;;;;;;;3.92;1.00;;;;;;;;;;5010449;28;20042;-61
2023/04/12 00:43:01;;;;;;;2.70;1.00;;;;;;;;;;5011153;28;20040;-61
2023/04/12 00:45:28;;;;;;;4.63;1.00;;;;;;;;;;5011180;28;20061;-61
2023/04/12 00:47:55;;;;;;;5.53;0.85;;;;;;;;;;5010599;28;20404;-61
2023/04/12 00:50:22;;;;;;;2.08;1.10;;;;;;;;;;5010731;28;20029;-61
2023/04/12 00:52:48;;;;;;;4.32;1.35;;;;;;;;;;5010705;28;20026;-61
2023/04/12 00:55:14;;;;;;;3.50;1.17;;;;;;;;;;5011699;28;20371;-61
2023/04/12 00:57:40;;;;;;;3.35;1.17;;;;;;;;;;5014472;28;20034;-60
2023/04/12 01:00:09;;;;;;;2.22;0.85;;;;;;;;;;5014512;28;20121;-60
2023/04/12 01:02:37;;;;;;;2.67;0.82;;;;;;;;;;5014239;28;20382;-60
2023/04/12 01:05:04;;;;;;;2.53;0.90;;;;;;;;;;5014389;28;20026;-60
2023/04/12 01:07:43;;;;;;;1.55;1.00;;;;;;;;;;5014212;28;20061;-60
2023/04/12 01:10:15;;;;;;;3.45;1.00;;;;;;;;;;5013936;28;20084;-60
2023/04/12 01:12:45;;;;;;;3.85;0.90;;;;;;;;;;5001508;28;20030;-60
2023/04/12 01:15:12;;;;;;;2.75;0.80;;;;;;;;;;4994591;28;20026;-60
2023/04/12 01:17:44;;;;;;;2.30;0.90;;;;;;;;;;5011933;28;20026;-60
2023/04/12 01:20:20;;;;;;;2.53;0.90;;;;;;;;;;5013464;28;20532;-60
2023/04/12 01:23:09;;;;;;;3.45;0.95;;;;;;;;;;5013556;28;20112;-60
2023/04/12 01:25:47;;;;;;;2.20;0.70;;;;;;;;;;4985611;28;20046;-61
2023/04/12 01:28:26;;;;;;;2.50;0.90;;;;;;;;;;5013864;28;20022;-61
2023/04/12 01:30:52;;;;;;;2.05;1.15;;;;;;;;;;5013314;28;20390;-61
2023/04/12 01:33:20;;;;;;;3.40;0.90;;;;;;;;;;5013302;28;20112;-61
2023/04/12 01:35:47;;;;;;;3.42;1.05;;;;;;;;;;5013329;28;20501;-60
2023/04/12 01:38:13;;;;;;;1.77;0.70;;;;;;;;;;5013826;28;20497;-61
2023/04/12 01:40:41;;;;;;;2.60;1.00;;;;;;;;;;5012798;28;20029;-61
2023/04/12 01:43:11;;;;;;;3.22;1.00;;;;;;;;;;5013322;28;20029;-60
2023/04/12 01:45:37;;;;;;;2.10;0.73;;;;;;;;;;5013105;28;20088;-61
2023/04/12 01:48:04;;;;;;;3.28;1.15;;;;;;;;;;5013284;28;20042;-61
2023/04/12 01:50:39;;;;;;;3.25;0.77;;;;;;;;;;5013512;28;20513;-61
2023/04/12 01:53:11;;;;;;;4.07;1.05;;;;;;;;;;5013290;28;20030;-60
2023/04/12 01:55:38;;;;;;;2.55;0.70;;;;;;;;;;5012728;28;20061;-59
2023/04/12 01:58:05;;;;;;;2.35;0.98;;;;;;;;;;4994041;28;20045;-60
2023/04/12 02:00:31;;;;;;;1.75;0.70;;;;;;;;;;5002587;28;20129;-60
2023/04/12 02:02:58;;;;;;;2.35;0.90;;;;;;;;;;5013450;28;20062;-60
2023/04/12 02:05:24;;;;;;;2.08;0.80;;;;;;;;;;5012983;28;20058;-60
2023/04/12 02:07:51;;;;;;;2.38;0.82;;;;;;;;;;5012970;28;20096;-60
2023/04/12 02:10:27;;;;;;;2.53;0.95;;;;;;;;;;5012569;28;20022;-60
2023/04/12 02:12:54;;;;;;;2.95;1.15;;;;;;;;;;5012704;28;20026;-60
2023/04/12 02:15:20;;;;;;;2.92;0.80;;;;;;;;;;5012818;28;20038;-60
2023/04/12 02:17:46;;;;;;;1.55;0.80;;;;;;;;;;5012432;28;20053;-60
2023/04/12 02:20:12;;;;;;;2.65;1.00;;;;;;;;;;5012593;28;20029;-60
2023/04/12 02:22:38;;;;;;;2.22;0.75;;;;;;;;;;5012239;28;20470;-61
2023/04/12 02:25:07;;;;;;;3.03;0.88;;;;;;;;;;5012690;28;20061;-60
2023/04/12 02:27:33;;;;;;;2.10;0.80;;;;;;;;;;5012051;28;20367;-60
2023/04/12 02:29:59;;;;;;;3.00;0.95;;;;;;;;;;5012841;28;20033;-60
2023/04/12 02:32:25;;;;;;;3.05;0.80;;;;;;;;;;5012425;28;20033;-60
2023/04/12 02:34:51;;;;;;;2.22;0.93;;;;;;;;;;5011725;28;20033;-60
2023/04/12 02:37:20;;;;;;;1.85;0.77;;;;;;;;;;5012383;28;20057;-61
2023/04/12 02:39:46;;;;;;;3.80;0.90;;;;;;;;;;5011550;28;20045;-61
2023/04/12 02:42:12;;;;;;;2.30;0.70;;;;;;;;;;5000766;28;20094;-61
2023/04/12 02:44:39;;;;;;;2.47;0.60;;;;;;;;;;5012421;28;20084;-60
2023/04/12 02:47:05;;;;;;;1.90;0.80;;;;;;;;;;5012040;28;20030;-60
2023/04/12 02:49:31;;;;;;;1.88;0.85;;;;;;;;;;5012705;28;20087;-60
2023/04/12 02:51:57;;;;;;;2.80;0.93;;;;;;;;;;5012037;28;20022;-60
2023/04/12 02:54:23;;;;;;;2.38;1.08;;;;;;;;;;5012188;28;20041;-60
2023/04/12 02:56:49;;;;;;;1.75;0.75;;;;;;;;;;5011616;28;20399;-60
2023/04/12 02:59:15;;;;;;;2.28;0.85;;;;;;;;;;5011805;28;20448;-60
2023/04/12 03:01:45;;;;;;;3.75;1.10;;;;;;;;;;5011645;28;20028;-61
2023/04/12 03:04:11;;;;;;;2.40;0.82;;;;;;;;;;5011842;28;20604;-60
2023/04/12 03:06:51;;;;;;;1.63;0.68;;;;;;;;;;5011423;28;20057;-61
2023/04/12 03:09:17;;;;;;;1.45;0.80;;;;;;;;;;5011832;28;20048;-61
2023/04/12 03:11:43;;;;;;;1.75;0.73;;;;;;;;;;5011716;28;20025;-60
2023/04/12 03:14:09;;;;;;;2.63;0.82;;;;;;;;;;5011721;28;20018;-61
2023/04/12 03:16:35;;;;;;;2.08;0.77;;;;;;;;;;5011524;28;20539;-61
2023/04/12 03:19:02;;;;;;;1.40;0.68;;;;;;;;;;5011686;28;20037;-60
2023/04/12 03:21:28;;;;;;;3.80;1.00;;;;;;;;;;5012120;28;20378;-60
2023/04/12 03:23:54;;;;;;;1.77;0.60;;;;;;;;;;5011553;28;20044;-60
2023/04/12 03:26:20;;;;;;;2.45;0.80;;;;;;;;;;5011560;28;20044;-60
2023/04/12 03:28:46;;;;;;;2.72;1.00;;;;;;;;;;5011684;28;20112;-61
2023/04/12 03:31:13;;;;;;;1.02;0.65;;;;;;;;;;5011829;28;20385;-61
2023/04/12 03:33:39;;;;;;;1.38;0.70;;;;;;;;;;5011330;28;20022;-60
2023/04/12 03:36:06;;;;;;;2.80;0.90;;;;;;;;;;5011627;28;20062;-61
2023/04/12 03:38:32;;;;;;;2.42;0.80;;;;;;;;;;5011206;28;20040;-61
2023/04/12 03:40:58;;;;;;;2.40;0.77;;;;;;;;;;5000284;28;20040;-60
2023/04/12 03:43:24;;;;;;;3.50;0.70;;;;;;;;;;4991824;28;20116;-61
2023/04/12 03:45:50;;;;;;;1.25;0.57;;;;;;;;;;5006750;28;20044;-60
2023/04/12 03:48:16;;;;;;;2.22;0.80;;;;;;;;;;5010796;28;20029;-61
2023/04/12 03:50:47;;;;;;;2.13;0.90;;;;;;;;;;5011040;28;20458;-61
2023/04/12 03:53:13;;;;;;;3.85;1.00;;;;;;;;;;5010998;28;20057;-60
2023/04/12 03:55:39;;;;;;;1.90;0.80;;;;;;;;;;5011088;28;20022;-60
2023/04/12 03:58:05;;;;;;;2.60;0.93;;;;;;;;;;5011002;28;20506;-60
2023/04/12 04:00:31;;;;;;;1.95;0.75;;;;;;;;;;5011000;28;20486;-60
2023/04/12 04:03:01;;;;;;;2.25;0.90;;;;;;;;;;5010935;28;20030;-60
2023/04/12 04:05:28;;;;;;;2.35;0.80;;;;;;;;;;5010970;28;20038;-61
2023/04/12 04:07:55;;;;;;;1.60;0.77;;;;;;;;;;5010259;28;20143;-61
2023/04/12 04:10:21;;;;;;;2.63;0.80;;;;;;;;;;5004853;28;20116;-60
2023/04/12 04:12:47;;;;;;;2.28;0.73;;;;;;;;;;4991138;28;20031;-61
2023/04/12 04:15:14;;;;;;;1.60;0.80;;;;;;;;;;5000900;28;20478;-61
2023/04/12 04:17:41;;;;;;;1.95;0.60;;;;;;;;;;5010497;28;20068;-61
2023/04/12 04:20:11;;;;;;;2.05;0.80;;;;;;;;;;5010925;28;20126;-60
2023/04/12 04:22:37;;;;;;;3.05;0.80;;;;;;;;;;5009904;28;20483;-61
2023/04/12 04:25:03;;;;;;;3.25;0.77;;;;;;;;;;5010688;28;20030;-60
2023/04/12 04:27:29;;;;;;;2.42;0.70;;;;;;;;;;5010951;28;20064;-60
2023/04/12 04:29:58;;;;;;;3.85;0.90;;;;;;;;;;5010805;28;20052;-61
2023/04/12 04:32:24;;;;;;;1.55;0.75;;;;;;;;;;5015161;28;20029;-60
2023/04/12 04:34:50;;;;;;;2.25;0.90;;;;;;;;;;5013984;28;20060;-60
2023/04/12 04:37:17;;;;;;;3.40;0.98;;;;;;;;;;5015010;28;20026;-60
2023/04/12 04:39:43;;;;;;;1.45;0.70;;;;;;;;;;5014184;28;20555;-60
2023/04/12 04:42:09;;;;;;;3.30;0.80;;;;;;;;;;4996744;28;20026;-60
2023/04/12 04:44:36;;;;;;;3.15;1.33;;;;;;;;;;5014344;28;20029;-61
2023/04/12 04:47:02;;;;;;;1.95;0.80;;;;;;;;;;5014872;28;20025;-60
2023/04/12 04:49:28;;;;;;;2.05;0.88;;;;;;;;;;5015094;28;20034;-61
2023/04/12 04:51:54;;;;;;;2.30;0.85;;;;;;;;;;5014114;28;20104;-60
2023/04/12 04:54:20;;;;;;;1.48;0.52;;;;;;;;;;5014719;28;20057;-60
2023/04/12 04:56:46;;;;;;;2.08;0.95;;;;;;;;;;5014347;28;20522;-60
2023/04/12 04:59:12;;;;;;;2.85;1.00;;;;;;;;;;5014390;28;20041;-62
2023/04/12 05:01:39;;;;;;;2.15;0.85;;;;;;;;;;5014218;28;20104;-60
2023/04/12 05:04:05;;;;;;;3.22;0.93;;;;;;;;;;5014291;28;20025;-60
2023/04/12 05:06:31;;;;;;;2.63;1.00;;;;;;;;;;5014720;28;20129;-61
2023/04/12 05:08:59;;;;;;;1.52;0.82;;;;;;;;;;5013964;28;20418;-60
2023/04/12 05:11:25;;;;;;;1.88;0.70;;;;;;;;;;5014116;28;20049;-60
2023/04/12 05:13:51;;;;;;;2.28;0.90;;;;;;;;;;5013785;28;20493;-61
2023/04/12 05:16:17;;;;;;;3.90;1.30;;;;;;;;;;5001732;28;20498;-61
2023/04/12 05:18:43;;;;;;;4.38;1.00;;;;;;;;;;4994453;28;20018;-60
2023/04/12 05:21:09;;;;;;;2.78;0.90;;;;;;;;;;5011178;28;20053;-61
2023/04/12 05:23:36;;;;;;;2.47;0.75;;;;;;;;;;5013513;28;20030;-61
2023/04/12 05:26:02;;;;;;;2.08;0.65;;;;;;;;;;5005166;28;20089;-60
2023/04/12 05:28:28;;;;;;;3.70;1.25;;;;;;;;;;4994964;28;20479;-61
2023/04/12 05:30:54;;;;;;;2.40;0.70;;;;;;;;;;5005545;28;20022;-60
2023/04/12 05:33:20;;;;;;;3.00;0.82;;;;;;;;;;5023963;28;20030;-60
2023/04/12 05:35:46;;;;;;;2.50;0.98;;;;;;;;;;5033421;28;20508;-60
2023/04/12 05:38:12;;;;;;;3.42;1.10;;;;;;;;;;5016160;28;20129;-61
2023/04/12 05:40:38;;;;;;;3.20;1.05;;;;;;;;;;4993204;28;20049;-60
2023/04/12 05:43:04;;;;;;;2.70;0.70;;;;;;;;;;5000209;28;20026;-60
2023/04/12 05:45:30;;;;;;;2.78;0.80;;;;;;;;;;5002442;28;20260;-61
2023/04/12 05:47:56;;;;;;;3.08;0.95;;;;;;;;;;5013071;28;20025;-62
2023/04/12 05:50:22;;;;;;;2.58;0.90;;;;;;;;;;5013756;28;20033;-72
2023/04/12 05:52:50;;;;;;;3.35;1.08;;;;;;;;;;5013370;28;20058;-67
2023/04/12 05:55:17;;;;;;;2.40;0.80;;;;;;;;;;5013622;28;20108;-66
2023/04/12 05:57:45;;;;;;;2.78;0.93;;;;;;;;;;5013560;28;20160;-67
2023/04/12 06:00:17;;;;;;;3.10;1.13;;;;;;;;;;5013574;28;20037;-61
2023/04/12 06:02:44;;;;;;;1.55;0.60;;;;;;;;;;5013486;28;20080;-65
2023/04/12 06:05:10;;;;;;;5.40;1.00;;;;;;;;;;5013365;28;20513;-65
2023/04/12 06:07:38;;;;;;;5.65;0.80;;;;;;;;;;5013314;28;20109;-62
2023/04/12 06:10:04;;;;;;;3.97;1.00;;;;;;;;;;5013379;28;20026;-61
2023/04/12 06:12:30;;;;;;;1.92;0.88;;;;;;;;;;5013638;28;20029;-61
2023/04/12 06:14:56;;;;;;;1.98;0.65;;;;;;;;;;5013111;28;20030;-66
2023/04/12 06:17:22;;;;;;;3.00;0.80;;;;;;;;;;5013331;28;20045;-65
2023/04/12 06:19:48;;;;;;;2.35;1.00;;;;;;;;;;5012972;28;20406;-66
2023/04/12 06:22:15;;;;;;;3.20;1.40;;;;;;;;;;5013128;28;20068;-65
2023/04/12 06:24:41;;;;;;;5.40;2.88;;;;;;;;;;5012772;28;20119;-67
2023/04/12 06:27:07;;;;;;;7.22;3.67;;;;;;;;;;5013186;28;20493;-61
2023/04/12 06:29:32;;;;;;;7.90;4.82;;;;;;;;;;5012722;28;20033;-61
2023/04/12 06:31:59;;;;;;;7.35;4.68;;;;;;;;;;5013326;28;20390;-63
2023/04/12 06:34:25;;;;;;;9.75;4.55;;;;;;;;;;5012986;28;20037;-62
2023/04/12 06:36:51;;;;;;;9.15;5.15;;;;;;;;;;5012674;28;20032;-62
2023/04/12 06:39:17;;;;;;;8.98;4.85;;;;;;;;;;5012972;28;20033;-62
2023/04/12 06:41:43;;;;;;;10.50;5.47;;;;;;;;;;5012487;28;20033;-62
2023/04/12 06:44:09;;;;;;;9.77;5.28;;;;;;;;;;4995307;28;20026;-66
2023/04/12 06:46:35;;;;;;;9.52;4.88;;;;;;;;;;5012648;28;20064;-62
2023/04/12 06:49:01;;;;;;;7.80;4.82;;;;;;;;;;5013208;28;20061;-61
2023/04/12 06:51:27;;;;;;;8.25;5.18;;;;;;;;;;5012897;28;20022;-61
2023/04/12 06:53:55;;;;;;;8.13;5.20;;;;;;;;;;5011659;28;20493;-62
2023/04/12 06:56:21;;;;;;;9.13;5.18;;;;;;;;;;4994989;28;20030;-61
2023/04/12 06:58:47;;;;;;;9.23;4.82;;;;;;;;;;5012444;28;20025;-63
2023/04/12 07:01:13;;;;;;;11.07;5.15;;;;;;;;;;5012272;28;20508;-61
2023/04/12 07:03:39;;;;;;;7.70;5.25;;;;;;;;;;5013891;28;20482;-62
2023/04/12 07:06:05;;;;;;;7.93;4.63;;;;;;;;;;5012247;28;20026;-64
2023/04/12 07:08:35;;;;;;;8.88;5.28;;;;;;;;;;5012721;28;20032;-63
2023/04/12 07:11:02;;;;;;;7.25;4.95;;;;;;;;;;5012719;28;20061;-64
2023/04/12 07:13:28;;;;;;;6.68;4.05;;;;;;;;;;5012667;28;20030;-62
2023/04/12 07:15:54;;;;;;;11.20;4.88;;;;;;;;;;5011991;28;20105;-62
2023/04/12 07:18:20;;;;;;;9.68;4.45;;;;;;;;;;5012215;28;20029;-61
2023/04/12 07:20:49;;;;;;;7.35;3.80;;;;;;;;;;5011729;28;20040;-61
2023/04/12 07:23:15;;;;;;;8.65;4.43;;;;;;;;;;5012215;28;20116;-61
2023/04/12 07:25:41;;;;;;;8.15;4.20;;;;;;;;;;5014092;28;20509;-60
2023/04/12 07:28:07;;;;;;;10.68;4.20;;;;;;;;;;5027661;28;20508;-62
2023/04/12 07:30:33;;;;;;;7.25;4.00;;;;;;;;;;5016408;28;20026;-61
2023/04/12 07:32:59;;;;;;;6.03;3.38;;;;;;;;;;5014567;28;20048;-62
2023/04/12 07:35:26;;;;;;;7.88;3.90;;;;;;;;;;5031452;28;20039;-61
2023/04/12 07:37:52;;;;;;;7.60;3.40;;;;;;;;;;5031426;28;20041;-63
2023/04/12 07:40:18;;;;;;;8.30;3.80;;;;;;;;;;5031447;28;20037;-64
2023/04/12 07:42:44;;;;;;;6.88;3.33;;;;;;;;;;5030699;28;20029;-63
2023/04/12 07:45:10;;;;;;;8.38;3.33;;;;;;;;;;5019811;28;20040;-65
2023/04/12 07:47:36;;;;;;;7.88;2.97;;;;;;;;;;5020373;28;20739;-61
2023/04/12 07:50:03;;;;;;;6.15;2.47;;;;;;;;;;5018241;28;20113;-61
2023/04/12 07:52:29;;;;;;;6.97;2.92;;;;;;;;;;5019863;28;20501;-63
2023/04/12 07:54:55;;;;;;;6.35;2.55;;;;;;;;;;5011871;28;20601;-62
2023/04/12 07:57:22;;;;;;;7.38;3.13;;;;;;;;;;5011655;28;20030;-61
2023/04/12 07:59:48;;;;;;;6.90;2.78;;;;;;;;;;5011181;28;20041;-61
2023/04/12 08:02:18;;;;;;;7.22;2.83;;;;;;;;;;5011589;28;20022;-65
2023/04/12 08:04:44;;;;;;;5.70;2.28;;;;;;;;;;5017915;28;20568;-62
2023/04/12 08:07:10;;;;;;;6.32;2.40;;;;;;;;;;5011037;28;20025;-66
2023/04/12 08:09:36;;;;;;;10.23;2.42;;;;;;;;;;5011231;28;20101;-65
2023/04/12 08:12:02;;;;;;;10.45;2.50;;;;;;;;;;5015872;28;20160;-61
2023/04/12 08:14:28;;;;;;;7.30;2.10;;;;;;;;;;5020589;28;20026;-65
2023/04/12 08:16:54;;;;;;;10.07;2.22;;;;;;;;;;5021215;28;20029;-62
2023/04/12 08:19:21;;;;;;;8.45;2.78;;;;;;;;;;5031073;28;20033;-67
2023/04/12 08:21:46;;;;;;;4.60;2.17;;;;;;;;;;5030864;28;20022;-64
2023/04/12 08:24:12;;;;;;;5.97;2.22;;;;;;;;;;5031143;28;20031;-62
2023/04/12 08:26:38;;;;;;;9.40;2.25;;;;;;;;;;5030804;28;20501;-64
2023/04/12 08:29:04;;;;;;;7.35;2.95;;;;;;;;;;5031140;28;20076;-63
2023/04/12 08:31:31;;;;;;;5.88;2.70;;;;;;;;;;5031141;28;20052;-62
2023/04/12 08:33:58;;;;;;;15.43;4.38;;;;;;;;;;5030649;28;20551;-63
2023/04/12 08:36:24;;;;;;;10.30;4.50;;;;;;;;;;5031001;28;20553;-62
2023/04/12 08:38:51;;;;;;;9.65;4.60;;;;;;;;;;5030715;28;20025;-63
2023/04/12 08:41:21;;;;;;;11.57;4.90;;;;;;;;;;5012983;28;20470;-63
2023/04/12 08:43:47;;;;;;;12.13;5.38;;;;;;;;;;5030343;28;20062;-62
2023/04/12 08:46:16;;;;;;;16.65;5.88;;;;;;;;;;5030617;28;20405;-62
2023/04/12 08:48:46;;;;;;;12.98;6.00;;;;;;;;;;5030142;28;20101;-62
2023/04/12 08:51:16;;;;;;;20.13;5.80;;;;;;;;;;5030806;28;20075;-62
2023/04/12 08:53:42;;;;;;;16.13;6.30;;;;;;;;;;5030589;28;20037;-62
2023/04/12 08:56:12;;;;;;;12.70;5.15;;;;;;;;;;5030716;28;20486;-62
2023/04/12 08:58:40;;;;;;;16.38;6.05;;;;;;;;;;5010259;28;20034;-62
2023/04/12 09:01:16;;;;;;;17.40;5.63;;;;;;;;;;5009796;28;20038;-65
2023/04/12 09:03:42;;;;;;;13.48;5.55;;;;;;;;;;5009281;28;20033;-63
2023/04/12 09:06:09;;;;;;;12.73;5.60;;;;;;;;;;5010908;28;20033;-64
2023/04/12 09:08:35;;;;;;;13.43;4.95;;;;;;;;;;5010003;28;20041;-63
2023/04/12 09:11:01;;;;;;;13.15;5.85;;;;;;;;;;5010371;28;20034;-62
2023/04/12 09:13:35;;;;;;;15.32;5.78;;;;;;;;;;5011321;28;20018;-63
2023/04/12 09:16:02;;;;;;;13.57;5.45;;;;;;;;;;5011583;28;20494;-62
2023/04/12 09:18:28;;;;;;;12.32;4.82;;;;;;;;;;5014838;28;20029;-62
2023/04/12 09:21:07;;;;;;;10.63;5.05;;;;;;;;;;5014081;28;20437;-62
2023/04/12 09:23:35;;;;;;;13.18;4.65;;;;;;;;;;5014080;28;20137;-63
2023/04/12 09:26:01;;;;;;;12.52;5.45;;;;;;;;;;5014754;28;20029;-65
2023/04/12 09:28:28;;;;;;;20.23;5.25;;;;;;;;;;5016263;28;20030;-62
2023/04/12 09:30:55;;;;;;;16.25;5.47;;;;;;;;;;5032635;28;20564;-62
2023/04/12 09:33:23;;;;;;;11.05;4.38;;;;;;;;;;5032220;28;20033;-62
2023/04/12 09:35:50;;;;;;;11.63;3.53;;;;;;;;;;5033448;28;20026;-62
2023/04/12 09:38:16;;;;;;;10.55;3.80;;;;;;;;;;5033735;28;20040;-62
2023/04/12 09:40:42;;;;;;;14.27;5.10;;;;;;;;;;5032508;28;20485;-64
2023/04/12 09:43:08;;;;;;;10.02;4.53;;;;;;;;;;5033674;28;20044;-62
2023/04/12 09:45:37;;;;;;;11.75;4.72;;;;;;;;;;5033462;28;20440;-62
2023/04/12 09:48:04;;;;;;;12.32;4.15;;;;;;;;;;5033559;28;20079;-62
2023/04/12 09:50:33;;;;;;;11.45;3.80;;;;;;;;;;5033032;28;20032;-62
2023/04/12 09:53:03;;;;;;;11.05;3.55;;;;;;;;;;5033219;28;20406;-63
2023/04/12 09:55:31;;;;;;;6.57;2.80;;;;;;;;;;5033279;28;20405;-65
2023/04/12 09:58:00;;;;;;;8.38;3.88;;;;;;;;;;5032485;28;20504;-64
2023/04/12 10:00:26;;;;;;;9.02;3.47;;;;;;;;;;5015407;28;20041;-62
2023/04/12 10:02:53;;;;;;;12.43;3.95;;;;;;;;;;5033064;28;20029;-62
2023/04/12 10:05:19;;;;;;;10.45;3.80;;;;;;;;;;5033205;28;20029;-63
2023/04/12 10:07:46;;;;;;;9.57;3.65;;;;;;;;;;5033093;28;20470;-62
2023/04/12 10:10:14;;;;;;;11.68;3.58;;;;;;;;;;5033223;28;20100;-63
2023/04/12 10:12:41;;;;;;;8.90;3.88;;;;;;;;;;5033055;28;20486;-63
2023/04/12 10:15:16;;;;;;;8.75;3.28;;;;;;;;;;5033241;28;20561;-63
2023/04/12 10:17:45;;;;;;;9.68;3.28;;;;;;;;;;5032922;28;20025;-63
2023/04/12 10:20:11;;;;;;;9.02;3.00;;;;;;;;;;5032880;28;20029;-63
2023/04/12 10:22:47;;;;;;;9.10;2.72;;;;;;;;;;5032918;28;20025;-63
2023/04/12 10:25:14;;;;;;;8.00;2.88;;;;;;;;;;5033052;28;20484;-63
2023/04/12 10:27:41;;;;;;;7.53;2.72;;;;;;;;;;5031475;28;20029;-63
2023/04/12 10:30:19;;;;;;;7.13;2.90;;;;;;;;;;5032833;28;20485;-62
2023/04/12 10:32:46;;;;;;;9.52;2.85;;;;;;;;;;5032684;28;20017;-63
2023/04/12 10:35:12;;;;;;;7.63;3.05;;;;;;;;;;5032716;28;20033;-63
2023/04/12 10:38:07;;;;;;;6.35;3.05;;;;;;;;;;5032553;28;20128;-63
2023/04/12 10:40:34;;;;;;;7.78;2.55;;;;;;;;;;5019536;28;20080;-62
2023/04/12 10:43:18;;;;;;;6.40;2.72;;;;;;;;;;5032583;28;20481;-62
2023/04/12 10:45:44;;;;;;;7.50;3.17;;;;;;;;;;5032230;28;20493;-65
2023/04/12 10:48:30;;;;;;;8.07;2.67;;;;;;;;;;5032595;28;20045;-65
2023/04/12 10:51:15;;;;;;;8.00;2.67;;;;;;;;;;5032096;28;20065;-65
2023/04/12 10:53:41;;;;;;;8.32;2.70;;;;;;;;;;5032396;28;20021;-62
2023/04/12 10:56:25;;;;;;;5.70;2.05;;;;;;;;;;5032468;28;20035;-64
2023/04/12 10:58:51;;;;;;;4.72;1.83;;;;;;;;;;5014414;28;20493;-63
2023/04/12 11:01:17;;;;;;;5.72;2.47;;;;;;;;;;5032280;28;20047;-62
2023/04/12 11:04:02;;;;;;;7.20;2.47;;;;;;;;;;5031913;28;20014;-62
2023/04/12 11:06:40;;;;;;;6.45;2.15;;;;;;;;;;5032795;28;20036;-63
2023/04/12 11:09:06;;;;;;;5.35;2.25;;;;;;;;;;5032235;28;20014;-62
2023/04/12 11:11:34;;;;;;;7.30;2.60;;;;;;;;;;5032082;28;20029;-62
2023/04/12 11:14:01;;;;;;;7.53;2.03;;;;;;;;;;5032302;28;20018;-62
2023/04/12 11:16:27;;;;;;;6.95;2.35;;;;;;;;;;5031998;28;20478;-62
2023/04/12 11:18:53;;;;;;;6.03;2.13;;;;;;;;;;5031767;28;20022;-63
2023/04/12 11:21:21;;;;;;;6.07;1.70;;;;;;;;;;5031906;28;20033;-64
2023/04/12 11:23:47;;;;;;;7.18;2.30;;;;;;;;;;5031678;28;20033;-62
2023/04/12 11:26:19;;;;;;;5.18;1.70;;;;;;;;;;5031968;28;20026;-63
2023/04/12 11:28:46;;;;;;;5.32;2.03;;;;;;;;;;5031480;28;20025;-62
2023/04/12 11:31:13;;;;;;;5.85;2.22;;;;;;;;;;5031642;28;20060;-62
2023/04/12 11:33:40;;;;;;;5.50;2.15;;;;;;;;;;5031554;28;20076;-64
2023/04/12 11:36:08;;;;;;;6.43;2.20;;;;;;;;;;5031750;28;20026;-62
2023/04/12 11:38:34;;;;;;;5.60;2.15;;;;;;;;;;5031096;28;20100;-62
2023/04/12 11:41:01;;;;;;;4.70;1.83;;;;;;;;;;5031692;28;20116;-62
2023/04/12 11:43:27;;;;;;;4.97;2.25;;;;;;;;;;5031390;28;20619;-62
2023/04/12 11:45:57;;;;;;;6.72;2.53;;;;;;;;;;5012727;28;20072;-64
2023/04/12 11:48:23;;;;;;;4.70;1.58;;;;;;;;;;5011673;28;20113;-63
2023/04/12 11:50:49;;;;;;;6.43;2.03;;;;;;;;;;5011548;28;20026;-63
2023/04/12 11:53:18;;;;;;;5.40;1.55;;;;;;;;;;5011667;28;20030;-62
2023/04/12 11:55:48;;;;;;;6.47;1.60;;;;;;;;;;5011229;28;20026;-62
2023/04/12 11:58:14;;;;;;;5.40;1.73;;;;;;;;;;5011784;28;20105;-62
2023/04/12 12:00:43;;;;;;;5.15;1.55;;;;;;;;;;5011203;28;20037;-62
2023/04/12 12:03:09;;;;;;;4.63;1.50;;;;;;;;;;5011644;28;20026;-62
2023/04/12 12:05:39;;;;;;;5.32;2.22;;;;;;;;;;5011353;28;20105;-62
2023/04/12 12:08:06;;;;;;;6.35;1.77;;;;;;;;;;5011518;28;20041;-62
2023/04/12 12:10:36;;;;;;;4.88;1.48;;;;;;;;;;5011251;28;20029;-61
2023/04/12 12:13:02;;;;;;;3.80;1.75;;;;;;;;;;5011654;28;20139;-62
2023/04/12 12:15:31;;;;;;;4.88;1.65;;;;;;;;;;5011774;28;20033;-62
2023/04/12 12:17:57;;;;;;;5.35;1.88;;;;;;;;;;5011397;28;20034;-61
2023/04/12 12:20:23;;;;;;;4.38;1.60;;;;;;;;;;5011353;28;20048;-61
2023/04/12 12:22:49;;;;;;;5.32;1.65;;;;;;;;;;5011095;28;20100;-61
2023/04/12 12:25:17;;;;;;;3.80;1.20;;;;;;;;;;5011502;28;20029;-61
2023/04/12 12:27:47;;;;;;;6.05;1.80;;;;;;;;;;4993451;28;20029;-62
2023/04/12 12:30:16;;;;;;;7.20;1.70;;;;;;;;;;5011331;28;20034;-61
2023/04/12 12:32:42;;;;;;;4.85;1.40;;;;;;;;;;5011073;28;20516;-61
2023/04/12 12:35:12;;;;;;;3.92;1.83;;;;;;;;;;5011221;28;20029;-61
2023/04/12 12:37:48;;;;;;;3.50;1.23;;;;;;;;;;5010984;28;20068;-61
2023/04/12 12:40:14;;;;;;;;;;;;;;;;;;5011291;28;20040;-61
2023/04/12 12:42:59;;;;;;;4.60;1.67;;;;;;;;;;5010759;28;20004;-61
2023/04/12 12:45:26;;;;;;;5.28;1.40;;;;;;;;;;5011216;28;20080;-61
2023/04/12 12:47:52;;;;;;;4.85;1.50;;;;;;;;;;5010866;28;20389;-61
2023/04/12 12:50:19;;;;;;;5.55;1.30;;;;;;;;;;5011095;28;20081;-61
2023/04/12 12:52:45;;;;;;;3.85;0.90;;;;;;;;;;5014305;28;20562;-61
2023/04/12 12:55:15;;;;;;;4.53;1.20;;;;;;;;;;5014759;28;20026;-61
2023/04/12 12:57:45;;;;;;;3.30;1.10;;;;;;;;;;5014672;28;20470;-63
2023/04/12 13:00:13;;;;;;;4.88;1.13;;;;;;;;;;5014577;28;20038;-63
2023/04/12 13:02:39;;;;;;;3.30;1.15;;;;;;;;;;5014668;28;20046;-63
2023/04/12 13:05:06;;;;;;;3.50;1.40;;;;;;;;;;5014767;28;20108;-65
2023/04/12 13:07:32;;;;;;;5.32;1.23;;;;;;;;;;5014993;28;20061;-62
2023/04/12 13:09:58;;;;;;;6.07;1.40;;;;;;;;;;5015002;28;20053;-62
2023/04/12 13:12:24;;;;;;;3.97;1.42;;;;;;;;;;5014641;28;20509;-64
2023/04/12 13:14:50;;;;;;;4.55;1.33;;;;;;;;;;5014298;28;20054;-62
2023/04/12 13:17:16;;;;;;;4.13;0.80;;;;;;;;;;5014611;28;20053;-63
2023/04/12 13:19:43;;;;;;;5.35;1.38;;;;;;;;;;5014240;28;20466;-62
2023/04/12 13:22:09;;;;;;;1.95;0.75;;;;;;;;;;5014525;28;20482;-61
2023/04/12 13:24:35;;;;;;;3.22;0.98;;;;;;;;;;5014243;28;20022;-61
2023/04/12 13:27:01;;;;;;;3.42;1.25;;;;;;;;;;5014548;28;20049;-62
2023/04/12 13:29:28;;;;;;;3.35;1.08;;;;;;;;;;5014623;28;20018;-62
2023/04/12 13:31:54;;;;;;;3.85;1.00;;;;;;;;;;5014079;28;20057;-61
2023/04/12 13:34:20;;;;;;;4.72;1.15;;;;;;;;;;5014361;28;20025;-61
2023/04/12 13:36:46;;;;;;;4.40;1.35;;;;;;;;;;5013974;28;20030;-61
2023/04/12 13:39:12;;;;;;;3.55;0.90;;;;;;;;;;5014157;28;20030;-61
2023/04/12 13:41:38;;;;;;;3.92;0.90;;;;;;;;;;5013782;28;20038;-61
2023/04/12 13:44:04;;;;;;;5.03;1.20;;;;;;;;;;5013885;28;20518;-61
2023/04/12 13:46:30;;;;;;;4.35;1.10;;;;;;;;;;5014315;28;20028;-63
2023/04/12 13:48:56;;;;;;;3.58;1.23;;;;;;;;;;5013670;28;20033;-62
2023/04/12 13:51:23;;;;;;;4.15;1.33;;;;;;;;;;5013931;28;20052;-62
2023/04/12 13:53:49;;;;;;;3.10;0.90;;;;;;;;;;5013693;28;20132;-61
2023/04/12 13:56:15;;;;;;;4.70;1.13;;;;;;;;;;5013832;28;20113;-62
2023/04/12 13:58:41;;;;;;;2.97;1.00;;;;;;;;;;5013515;28;20175;-62
2023/04/12 14:01:08;;;;;;;3.97;1.15;;;;;;;;;;5013616;28;20042;-61
2023/04/12 14:03:34;;;;;;;3.35;1.05;;;;;;;;;;5013143;28;20026;-62
2023/04/12 14:06:01;;;;;;;2.63;0.77;;;;;;;;;;5013911;28;20100;-61
2023/04/12 14:08:28;;;;;;;3.42;1.23;;;;;;;;;;5013611;28;20024;-61
2023/04/12 14:10:54;;;;;;;4.13;1.00;;;;;;;;;;5013178;28;20034;-62
2023/04/12 14:13:23;;;;;;;4.82;0.98;;;;;;;;;;5013627;28;20028;-62
2023/04/12 14:15:50;;;;;;;4.88;1.05;;;;;;;;;;5013267;28;20026;-62
2023/04/12 14:18:16;;;;;;;3.08;1.05;;;;;;;;;;5013471;28;20026;-61
2023/04/12 14:20:44;;;;;;;3.88;1.00;;;;;;;;;;4995725;28;20060;-61
2023/04/12 14:23:10;;;;;;;3.85;1.00;;;;;;;;;;5013227;28;20034;-61
2023/04/12 14:25:39;;;;;;;4.45;1.15;;;;;;;;;;5012965;28;20082;-61
2023/04/12 14:28:05;;;;;;;4.57;1.10;;;;;;;;;;5013378;28;20033;-61
2023/04/12 14:30:31;;;;;;;4.05;1.10;;;;;;;;;;5013462;28;20500;-61
2023/04/12 14:32:57;;;;;;;3.55;0.77;;;;;;;;;;5013449;28;20026;-61
2023/04/12 14:35:23;;;;;;;2.92;0.75;;;;;;;;;;5013333;28;20022;-64
2023/04/12 14:37:49;;;;;;;4.60;0.80;;;;;;;;;;5012596;28;20073;-62
2023/04/12 14:40:17;;;;;;;3.90;0.90;;;;;;;;;;5012778;28;20034;-63
2023/04/12 14:42:43;;;;;;;3.47;1.15;;;;;;;;;;5012526;28;20038;-62